sensor_id;sensor_type;location;lat;lon;timestamp;temperature;humidity
36004;DHT22;24526;50.918;5.360;2022-07-22T00:00:01;20.00;99.90
36004;DHT22;24526;50.918;5.360;2022-07-22T00:02:27;19.90;99.90
36004;DHT22;24526;50.918;5.360;2022-07-22T00:04:53;19.90;99.90
36004;DHT22;24526;50.918;5.360;2022-07-22T00:07:18;19.90;99.90
36004;DHT22;24526;50.918;5.360;2022-07-22T00:09:44;19.90;99.90
36004;DHT22;24526;50.918;5.360;2022-07-22T00:12:13;20.00;99.90
36004;DHT22;24526;50.918;5.360;2022-07-22T00:14:39;19.90;99.90
36004;DHT22;24526;50.918;5.360;2022-07-22T00:17:04;19.90;99.90
36004;DHT22;24526;50.918;5.360;2022-07-22T00:19:30;20.00;99.90
36004;DHT22;24526;50.918;5.360;2022-07-22T00:21:56;20.00;99.90
36004;DHT22;24526;50.918;5.360;2022-07-22T00:24:21;19.90;99.90
36004;DHT22;24526;50.918;5.360;2022-07-22T00:26:47;19.80;99.90
36004;DHT22;24526;50.918;5.360;2022-07-22T00:29:16;19.70;99.90
36004;DHT22;24526;50.918;5.360;2022-07-22T00:31:42;19.50;99.90
36004;DHT22;24526;50.918;5.360;2022-07-22T00:34:08;19.50;99.90
36004;DHT22;24526;50.918;5.360;2022-07-22T00:36:34;19.50;99.90
36004;DHT22;24526;50.918;5.360;2022-07-22T00:39:00;19.40;99.90
36004;DHT22;24526;50.918;5.360;2022-07-22T00:41:25;19.40;99.90
36004;DHT22;24526;50.918;5.360;2022-07-22T00:46:17;19.20;99.90
36004;DHT22;24526;50.918;5.360;2022-07-22T00:48:49;19.20;99.90
36004;DHT22;24526;50.918;5.360;2022-07-22T00:51:16;19.20;99.90
36004;DHT22;24526;50.918;5.360;2022-07-22T00:53:45;19.30;99.90
36004;DHT22;24526;50.918;5.360;2022-07-22T00:56:13;19.30;99.90
36004;DHT22;24526;50.918;5.360;2022-07-22T00:58:43;19.20;99.90
36004;DHT22;24526;50.918;5.360;2022-07-22T01:01:09;19.10;99.90
36004;DHT22;24526;50.918;5.360;2022-07-22T01:03:36;19.10;99.90
36004;DHT22;24526;50.918;5.360;2022-07-22T01:06:04;19.00;99.90
36004;DHT22;24526;50.918;5.360;2022-07-22T01:08:32;19.00;99.90
36004;DHT22;24526;50.918;5.360;2022-07-22T01:11:10;19.00;99.90
36004;DHT22;24526;50.918;5.360;2022-07-22T01:13:36;19.00;99.90
36004;DHT22;24526;50.918;5.360;2022-07-22T01:16:03;19.10;99.90
36004;DHT22;24526;50.918;5.360;2022-07-22T01:18:32;19.10;99.90
36004;DHT22;24526;50.918;5.360;2022-07-22T01:20:58;19.20;99.90
36004;DHT22;24526;50.918;5.360;2022-07-22T01:23:27;19.30;99.90
36004;DHT22;24526;50.918;5.360;2022-07-22T01:25:53;19.30;99.90
36004;DHT22;24526;50.918;5.360;2022-07-22T01:28:23;19.20;99.90
36004;DHT22;24526;50.918;5.360;2022-07-22T01:30:51;19.20;99.90
36004;DHT22;24526;50.918;5.360;2022-07-22T01:33:20;19.20;99.90
36004;DHT22;24526;50.918;5.360;2022-07-22T01:35:50;19.30;99.90
36004;DHT22;24526;50.918;5.360;2022-07-22T01:38:20;19.20;99.90
36004;DHT22;24526;50.918;5.360;2022-07-22T01:40:46;19.10;99.90
36004;DHT22;24526;50.918;5.360;2022-07-22T01:43:14;19.10;99.90
36004;DHT22;24526;50.918;5.360;2022-07-22T01:45:47;19.00;99.90
36004;DHT22;24526;50.918;5.360;2022-07-22T01:48:18;19.10;99.90
36004;DHT22;24526;50.918;5.360;2022-07-22T01:50:46;19.20;99.90
36004;DHT22;24526;50.918;5.360;2022-07-22T01:53:16;19.20;99.90
36004;DHT22;24526;50.918;5.360;2022-07-22T01:55:41;19.10;99.90
36004;DHT22;24526;50.918;5.360;2022-07-22T01:58:09;19.00;99.90
36004;DHT22;24526;50.918;5.360;2022-07-22T02:00:35;19.00;99.90
36004;DHT22;24526;50.918;5.360;2022-07-22T02:03:01;19.00;99.90
36004;DHT22;24526;50.918;5.360;2022-07-22T02:05:33;19.00;99.90
36004;DHT22;24526;50.918;5.360;2022-07-22T02:08:01;19.00;99.90
36004;DHT22;24526;50.918;5.360;2022-07-22T02:10:27;19.20;99.90
36004;DHT22;24526;50.918;5.360;2022-07-22T02:12:53;19.10;99.90
36004;DHT22;24526;50.918;5.360;2022-07-22T02:15:19;19.00;99.90
36004;DHT22;24526;50.918;5.360;2022-07-22T02:17:49;18.90;99.90
36004;DHT22;24526;50.918;5.360;2022-07-22T02:20:14;18.80;99.90
36004;DHT22;24526;50.918;5.360;2022-07-22T02:22:40;18.90;99.90
36004;DHT22;24526;50.918;5.360;2022-07-22T02:25:06;18.90;99.90
36004;DHT22;24526;50.918;5.360;2022-07-22T02:27:31;18.80;99.90
36004;DHT22;24526;50.918;5.360;2022-07-22T02:29:58;18.80;99.90
36004;DHT22;24526;50.918;5.360;2022-07-22T02:32:24;18.90;99.90
36004;DHT22;24526;50.918;5.360;2022-07-22T02:34:49;18.80;99.90
36004;DHT22;24526;50.918;5.360;2022-07-22T02:37:17;18.80;99.90
36004;DHT22;24526;50.918;5.360;2022-07-22T02:39:42;18.80;99.90
36004;DHT22;24526;50.918;5.360;2022-07-22T02:42:10;18.80;99.90
36004;DHT22;24526;50.918;5.360;2022-07-22T02:44:36;18.70;99.90
36004;DHT22;24526;50.918;5.360;2022-07-22T02:47:05;18.70;99.90
36004;DHT22;24526;50.918;5.360;2022-07-22T02:49:33;18.70;99.90
36004;DHT22;24526;50.918;5.360;2022-07-22T02:51:59;18.60;99.90
36004;DHT22;24526;50.918;5.360;2022-07-22T02:54:28;18.50;99.90
36004;DHT22;24526;50.918;5.360;2022-07-22T02:56:54;18.40;99.90
36004;DHT22;24526;50.918;5.360;2022-07-22T02:59:19;18.50;99.90
36004;DHT22;24526;50.918;5.360;2022-07-22T03:01:48;18.60;99.90
36004;DHT22;24526;50.918;5.360;2022-07-22T03:04:16;18.70;99.90
36004;DHT22;24526;50.918;5.360;2022-07-22T03:06:42;18.70;99.90
36004;DHT22;24526;50.918;5.360;2022-07-22T03:09:10;18.70;99.90
36004;DHT22;24526;50.918;5.360;2022-07-22T03:11:46;18.70;99.90
36004;DHT22;24526;50.918;5.360;2022-07-22T03:14:12;18.60;99.90
36004;DHT22;24526;50.918;5.360;2022-07-22T03:16:38;18.60;99.90
36004;DHT22;24526;50.918;5.360;2022-07-22T03:19:06;18.60;99.90
36004;DHT22;24526;50.918;5.360;2022-07-22T03:21:32;18.60;99.90
36004;DHT22;24526;50.918;5.360;2022-07-22T03:23:58;18.60;99.90
36004;DHT22;24526;50.918;5.360;2022-07-22T03:26:29;18.60;99.90
36004;DHT22;24526;50.918;5.360;2022-07-22T03:28:55;18.60;99.90
36004;DHT22;24526;50.918;5.360;2022-07-22T03:31:20;18.60;99.90
36004;DHT22;24526;50.918;5.360;2022-07-22T03:33:46;18.60;99.90
36004;DHT22;24526;50.918;5.360;2022-07-22T03:36:12;18.80;99.90
36004;DHT22;24526;50.918;5.360;2022-07-22T03:38:38;18.70;99.90
36004;DHT22;24526;50.918;5.360;2022-07-22T03:41:04;18.70;99.90
36004;DHT22;24526;50.918;5.360;2022-07-22T03:43:30;18.70;99.90
36004;DHT22;24526;50.918;5.360;2022-07-22T03:45:56;18.70;99.90
36004;DHT22;24526;50.918;5.360;2022-07-22T03:48:22;18.60;99.90
36004;DHT22;24526;50.918;5.360;2022-07-22T03:50:47;18.50;99.90
36004;DHT22;24526;50.918;5.360;2022-07-22T03:53:17;18.50;99.90
36004;DHT22;24526;50.918;5.360;2022-07-22T03:55:42;18.40;99.90
36004;DHT22;24526;50.918;5.360;2022-07-22T03:58:08;18.50;99.90
36004;DHT22;24526;50.918;5.360;2022-07-22T04:00:54;18.50;99.90
36004;DHT22;24526;50.918;5.360;2022-07-22T04:03:20;18.60;99.90
36004;DHT22;24526;50.918;5.360;2022-07-22T04:05:46;18.60;99.90
36004;DHT22;24526;50.918;5.360;2022-07-22T04:08:12;18.70;99.90
36004;DHT22;24526;50.918;5.360;2022-07-22T04:10:40;18.70;99.90
36004;DHT22;24526;50.918;5.360;2022-07-22T04:13:06;18.70;99.90
36004;DHT22;24526;50.918;5.360;2022-07-22T04:15:34;18.80;99.90
36004;DHT22;24526;50.918;5.360;2022-07-22T04:18:00;18.70;99.90
36004;DHT22;24526;50.918;5.360;2022-07-22T04:20:31;18.60;99.90
36004;DHT22;24526;50.918;5.360;2022-07-22T04:22:59;18.50;99.90
36004;DHT22;24526;50.918;5.360;2022-07-22T04:25:28;18.40;99.90
36004;DHT22;24526;50.918;5.360;2022-07-22T04:27:54;18.30;99.90
36004;DHT22;24526;50.918;5.360;2022-07-22T04:30:23;18.30;99.90
36004;DHT22;24526;50.918;5.360;2022-07-22T04:32:51;18.20;99.90
36004;DHT22;24526;50.918;5.360;2022-07-22T04:35:17;18.30;99.90
36004;DHT22;24526;50.918;5.360;2022-07-22T04:37:42;18.30;99.90
36004;DHT22;24526;50.918;5.360;2022-07-22T04:40:08;18.30;99.90
36004;DHT22;24526;50.918;5.360;2022-07-22T04:42:34;18.30;99.90
36004;DHT22;24526;50.918;5.360;2022-07-22T04:45:03;18.30;99.90
36004;DHT22;24526;50.918;5.360;2022-07-22T04:47:28;18.40;99.90
36004;DHT22;24526;50.918;5.360;2022-07-22T04:49:54;18.50;99.90
36004;DHT22;24526;50.918;5.360;2022-07-22T04:52:20;18.40;99.90
36004;DHT22;24526;50.918;5.360;2022-07-22T04:54:48;18.30;99.90
36004;DHT22;24526;50.918;5.360;2022-07-22T04:57:16;18.20;99.90
36004;DHT22;24526;50.918;5.360;2022-07-22T04:59:44;18.20;99.90
36004;DHT22;24526;50.918;5.360;2022-07-22T05:02:11;18.30;99.90
36004;DHT22;24526;50.918;5.360;2022-07-22T05:04:42;18.50;99.90
36004;DHT22;24526;50.918;5.360;2022-07-22T05:07:13;18.60;99.90
36004;DHT22;24526;50.918;5.360;2022-07-22T05:09:42;18.70;99.90
36004;DHT22;24526;50.918;5.360;2022-07-22T05:12:11;18.70;99.90
36004;DHT22;24526;50.918;5.360;2022-07-22T05:14:37;18.80;99.90
36004;DHT22;24526;50.918;5.360;2022-07-22T05:17:08;18.90;99.90
36004;DHT22;24526;50.918;5.360;2022-07-22T05:19:37;19.10;99.90
36004;DHT22;24526;50.918;5.360;2022-07-22T05:22:03;19.00;99.90
36004;DHT22;24526;50.918;5.360;2022-07-22T05:24:28;18.90;99.90
36004;DHT22;24526;50.918;5.360;2022-07-22T05:26:54;18.90;99.90
36004;DHT22;24526;50.918;5.360;2022-07-22T05:29:20;18.90;99.90
36004;DHT22;24526;50.918;5.360;2022-07-22T05:31:46;19.10;99.90
36004;DHT22;24526;50.918;5.360;2022-07-22T05:34:12;19.20;99.90
36004;DHT22;24526;50.918;5.360;2022-07-22T05:36:41;19.20;99.90
36004;DHT22;24526;50.918;5.360;2022-07-22T05:39:07;19.20;99.90
36004;DHT22;24526;50.918;5.360;2022-07-22T05:41:38;19.40;99.90
36004;DHT22;24526;50.918;5.360;2022-07-22T05:44:06;19.60;99.90
36004;DHT22;24526;50.918;5.360;2022-07-22T05:46:35;19.70;99.90
36004;DHT22;24526;50.918;5.360;2022-07-22T05:49:07;19.80;99.90
36004;DHT22;24526;50.918;5.360;2022-07-22T05:51:32;19.90;99.90
36004;DHT22;24526;50.918;5.360;2022-07-22T05:53:59;20.00;99.90
36004;DHT22;24526;50.918;5.360;2022-07-22T05:56:27;20.20;99.90
36004;DHT22;24526;50.918;5.360;2022-07-22T05:58:53;20.20;99.90
36004;DHT22;24526;50.918;5.360;2022-07-22T06:01:21;20.20;99.90
36004;DHT22;24526;50.918;5.360;2022-07-22T06:03:46;20.10;99.90
36004;DHT22;24526;50.918;5.360;2022-07-22T06:06:12;20.20;99.90
36004;DHT22;24526;50.918;5.360;2022-07-22T06:08:38;20.30;99.90
36004;DHT22;24526;50.918;5.360;2022-07-22T06:11:04;20.20;99.90
36004;DHT22;24526;50.918;5.360;2022-07-22T06:13:39;20.20;99.90
36004;DHT22;24526;50.918;5.360;2022-07-22T06:16:07;20.20;99.90
36004;DHT22;24526;50.918;5.360;2022-07-22T06:18:33;20.30;99.90
36004;DHT22;24526;50.918;5.360;2022-07-22T06:21:03;20.30;99.90
36004;DHT22;24526;50.918;5.360;2022-07-22T06:23:35;20.40;99.90
36004;DHT22;24526;50.918;5.360;2022-07-22T06:26:01;20.30;99.90
36004;DHT22;24526;50.918;5.360;2022-07-22T06:28:26;20.30;99.90
36004;DHT22;24526;50.918;5.360;2022-07-22T06:30:55;20.10;99.90
36004;DHT22;24526;50.918;5.360;2022-07-22T06:33:21;20.20;99.90
36004;DHT22;24526;50.918;5.360;2022-07-22T06:35:50;20.40;99.90
36004;DHT22;24526;50.918;5.360;2022-07-22T06:38:16;20.60;99.90
36004;DHT22;24526;50.918;5.360;2022-07-22T06:40:42;20.80;99.90
36004;DHT22;24526;50.918;5.360;2022-07-22T06:43:08;20.80;99.90
36004;DHT22;24526;50.918;5.360;2022-07-22T06:45:37;20.70;99.90
36004;DHT22;24526;50.918;5.360;2022-07-22T06:48:02;20.60;99.90
36004;DHT22;24526;50.918;5.360;2022-07-22T06:50:32;20.40;99.90
36004;DHT22;24526;50.918;5.360;2022-07-22T06:53:00;20.50;99.90
36004;DHT22;24526;50.918;5.360;2022-07-22T06:55:28;20.50;99.90
36004;DHT22;24526;50.918;5.360;2022-07-22T06:57:54;20.40;99.90
36004;DHT22;24526;50.918;5.360;2022-07-22T07:00:20;20.50;99.90
36004;DHT22;24526;50.918;5.360;2022-07-22T07:02:52;20.70;99.90
36004;DHT22;24526;50.918;5.360;2022-07-22T07:05:17;20.80;99.90
36004;DHT22;24526;50.918;5.360;2022-07-22T07:07:43;20.90;99.90
36004;DHT22;24526;50.918;5.360;2022-07-22T07:10:09;20.80;99.90
36004;DHT22;24526;50.918;5.360;2022-07-22T07:12:36;20.80;99.90
36004;DHT22;24526;50.918;5.360;2022-07-22T07:15:06;20.90;99.90
36004;DHT22;24526;50.918;5.360;2022-07-22T07:17:37;21.10;99.90
36004;DHT22;24526;50.918;5.360;2022-07-22T07:20:04;21.30;99.90
36004;DHT22;24526;50.918;5.360;2022-07-22T07:22:32;21.50;99.90
36004;DHT22;24526;50.918;5.360;2022-07-22T07:25:01;21.70;99.90
36004;DHT22;24526;50.918;5.360;2022-07-22T07:27:27;22.00;99.90
36004;DHT22;24526;50.918;5.360;2022-07-22T07:29:58;22.30;99.90
36004;DHT22;24526;50.918;5.360;2022-07-22T07:32:32;22.50;99.60
36004;DHT22;24526;50.918;5.360;2022-07-22T07:34:58;22.50;99.50
36004;DHT22;24526;50.918;5.360;2022-07-22T07:37:24;22.40;98.80
36004;DHT22;24526;50.918;5.360;2022-07-22T07:39:49;22.40;98.40
36004;DHT22;24526;50.918;5.360;2022-07-22T07:42:16;22.00;99.30
36004;DHT22;24526;50.918;5.360;2022-07-22T07:44:47;21.80;99.40
36004;DHT22;24526;50.918;5.360;2022-07-22T07:47:14;21.60;99.70
36004;DHT22;24526;50.918;5.360;2022-07-22T07:49:48;21.50;99.90
36004;DHT22;24526;50.918;5.360;2022-07-22T07:52:15;21.40;99.60
36004;DHT22;24526;50.918;5.360;2022-07-22T07:54:41;21.40;99.90
36004;DHT22;24526;50.918;5.360;2022-07-22T07:57:07;21.50;99.70
36004;DHT22;24526;50.918;5.360;2022-07-22T07:59:33;21.60;99.90
36004;DHT22;24526;50.918;5.360;2022-07-22T08:02:01;21.70;99.40
36004;DHT22;24526;50.918;5.360;2022-07-22T08:04:27;21.60;99.90
36004;DHT22;24526;50.918;5.360;2022-07-22T08:06:55;21.60;99.30
36004;DHT22;24526;50.918;5.360;2022-07-22T08:09:23;21.60;99.50
36004;DHT22;24526;50.918;5.360;2022-07-22T08:11:51;21.70;99.40
36004;DHT22;24526;50.918;5.360;2022-07-22T08:14:20;21.90;98.70
36004;DHT22;24526;50.918;5.360;2022-07-22T08:17:06;22.00;98.00
36004;DHT22;24526;50.918;5.360;2022-07-22T08:19:32;22.00;98.80
36004;DHT22;24526;50.918;5.360;2022-07-22T08:21:58;22.20;98.20
36004;DHT22;24526;50.918;5.360;2022-07-22T08:24:27;22.30;98.60
36004;DHT22;24526;50.918;5.360;2022-07-22T08:26:56;22.40;97.90
36004;DHT22;24526;50.918;5.360;2022-07-22T08:29:21;22.60;98.30
36004;DHT22;24526;50.918;5.360;2022-07-22T08:31:47;22.70;97.80
36004;DHT22;24526;50.918;5.360;2022-07-22T08:34:13;22.70;97.20
36004;DHT22;24526;50.918;5.360;2022-07-22T08:36:41;22.80;97.60
36004;DHT22;24526;50.918;5.360;2022-07-22T08:39:07;22.50;97.40
36004;DHT22;24526;50.918;5.360;2022-07-22T08:41:36;22.60;98.80
36004;DHT22;24526;50.918;5.360;2022-07-22T08:44:06;22.90;98.80
36004;DHT22;24526;50.918;5.360;2022-07-22T08:46:32;23.20;98.90
36004;DHT22;24526;50.918;5.360;2022-07-22T08:48:58;23.40;98.10
36004;DHT22;24526;50.918;5.360;2022-07-22T08:51:26;23.50;97.40
36004;DHT22;24526;50.918;5.360;2022-07-22T08:53:52;23.70;96.90
36004;DHT22;24526;50.918;5.360;2022-07-22T08:56:17;23.70;96.50
36004;DHT22;24526;50.918;5.360;2022-07-22T08:58:43;23.90;96.60
36004;DHT22;24526;50.918;5.360;2022-07-22T09:01:16;23.90;95.40
36004;DHT22;24526;50.918;5.360;2022-07-22T09:06:13;23.70;95.30
36004;DHT22;24526;50.918;5.360;2022-07-22T09:08:55;23.80;95.70
36004;DHT22;24526;50.918;5.360;2022-07-22T09:11:24;23.60;95.30
36004;DHT22;24526;50.918;5.360;2022-07-22T09:13:51;23.50;95.10
36004;DHT22;24526;50.918;5.360;2022-07-22T09:19:03;23.60;96.00
36004;DHT22;24526;50.918;5.360;2022-07-22T09:21:32;23.60;95.60
36004;DHT22;24526;50.918;5.360;2022-07-22T09:23:59;23.50;94.90
36004;DHT22;24526;50.918;5.360;2022-07-22T09:26:30;23.40;94.60
36004;DHT22;24526;50.918;5.360;2022-07-22T09:28:56;23.40;94.80
36004;DHT22;24526;50.918;5.360;2022-07-22T09:31:25;23.40;95.20
36004;DHT22;24526;50.918;5.360;2022-07-22T09:33:59;23.50;95.40
36004;DHT22;24526;50.918;5.360;2022-07-22T09:36:29;23.50;94.90
36004;DHT22;24526;50.918;5.360;2022-07-22T09:38:55;23.30;94.90
36004;DHT22;24526;50.918;5.360;2022-07-22T09:41:22;23.10;94.90
36004;DHT22;24526;50.918;5.360;2022-07-22T09:43:50;23.00;95.80
36004;DHT22;24526;50.918;5.360;2022-07-22T09:46:16;23.10;96.60
36004;DHT22;24526;50.918;5.360;2022-07-22T09:48:42;23.40;96.10
36004;DHT22;24526;50.918;5.360;2022-07-22T09:51:08;23.60;94.70
36004;DHT22;24526;50.918;5.360;2022-07-22T09:53:37;23.70;95.60
36004;DHT22;24526;50.918;5.360;2022-07-22T09:56:06;23.90;95.00
36004;DHT22;24526;50.918;5.360;2022-07-22T09:58:37;24.00;94.70
36004;DHT22;24526;50.918;5.360;2022-07-22T10:01:23;24.00;94.50
36004;DHT22;24526;50.918;5.360;2022-07-22T10:03:49;24.10;92.60
36004;DHT22;24526;50.918;5.360;2022-07-22T10:06:16;24.10;93.30
36004;DHT22;24526;50.918;5.360;2022-07-22T10:08:42;24.00;93.50
36004;DHT22;24526;50.918;5.360;2022-07-22T10:11:08;24.00;93.60
36004;DHT22;24526;50.918;5.360;2022-07-22T10:13:34;23.80;93.40
36004;DHT22;24526;50.918;5.360;2022-07-22T10:16:02;24.00;93.70
36004;DHT22;24526;50.918;5.360;2022-07-22T10:18:28;24.20;94.10
36004;DHT22;24526;50.918;5.360;2022-07-22T10:21:08;24.20;93.40
36004;DHT22;24526;50.918;5.360;2022-07-22T10:23:37;24.30;94.00
36004;DHT22;24526;50.918;5.360;2022-07-22T10:26:45;24.40;94.20
36004;DHT22;24526;50.918;5.360;2022-07-22T10:29:23;24.60;94.00
36004;DHT22;24526;50.918;5.360;2022-07-22T10:32:34;24.70;93.10
36004;DHT22;24526;50.918;5.360;2022-07-22T10:34:35;24.90;93.30
36004;DHT22;24526;50.918;5.360;2022-07-22T10:37:03;25.00;94.40
36004;DHT22;24526;50.918;5.360;2022-07-22T10:39:29;25.00;93.50
36004;DHT22;24526;50.918;5.360;2022-07-22T10:41:55;24.80;92.90
36004;DHT22;24526;50.918;5.360;2022-07-22T10:47:05;24.80;93.20
36004;DHT22;24526;50.918;5.360;2022-07-22T10:49:33;24.60;92.90
36004;DHT22;24526;50.918;5.360;2022-07-22T10:52:08;24.70;93.40
36004;DHT22;24526;50.918;5.360;2022-07-22T10:54:36;24.80;92.80
36004;DHT22;24526;50.918;5.360;2022-07-22T10:57:29;24.70;92.80
36004;DHT22;24526;50.918;5.360;2022-07-22T10:59:55;24.80;93.40
36004;DHT22;24526;50.918;5.360;2022-07-22T11:02:23;24.90;92.10
36004;DHT22;24526;50.918;5.360;2022-07-22T11:04:51;24.90;92.90
36004;DHT22;24526;50.918;5.360;2022-07-22T11:07:20;24.90;94.10
36004;DHT22;24526;50.918;5.360;2022-07-22T11:09:45;24.90;94.00
36004;DHT22;24526;50.918;5.360;2022-07-22T11:12:11;25.00;93.80
36004;DHT22;24526;50.918;5.360;2022-07-22T11:14:37;25.10;93.50
36004;DHT22;24526;50.918;5.360;2022-07-22T11:19:31;25.30;92.70
36004;DHT22;24526;50.918;5.360;2022-07-22T11:22:06;25.20;92.00
36004;DHT22;24526;50.918;5.360;2022-07-22T11:24:35;25.40;92.00
36004;DHT22;24526;50.918;5.360;2022-07-22T11:27:01;25.40;93.00
36004;DHT22;24526;50.918;5.360;2022-07-22T11:29:31;25.30;92.30
36004;DHT22;24526;50.918;5.360;2022-07-22T11:31:59;25.50;92.10
36004;DHT22;24526;50.918;5.360;2022-07-22T11:34:25;25.50;92.40
36004;DHT22;24526;50.918;5.360;2022-07-22T11:36:57;25.60;91.60
36004;DHT22;24526;50.918;5.360;2022-07-22T11:39:24;25.50;91.10
36004;DHT22;24526;50.918;5.360;2022-07-22T11:41:53;25.40;90.80
36004;DHT22;24526;50.918;5.360;2022-07-22T11:44:20;25.20;91.90
36004;DHT22;24526;50.918;5.360;2022-07-22T11:46:47;25.20;92.00
36004;DHT22;24526;50.918;5.360;2022-07-22T11:49:15;25.20;91.60
36004;DHT22;24526;50.918;5.360;2022-07-22T11:51:44;25.40;91.40
36004;DHT22;24526;50.918;5.360;2022-07-22T11:54:12;25.60;91.60
36004;DHT22;24526;50.918;5.360;2022-07-22T11:56:38;25.80;90.80
36004;DHT22;24526;50.918;5.360;2022-07-22T11:59:04;25.90;91.60
36004;DHT22;24526;50.918;5.360;2022-07-22T12:01:31;25.90;91.10
36004;DHT22;24526;50.918;5.360;2022-07-22T12:03:58;26.00;92.80
36004;DHT22;24526;50.918;5.360;2022-07-22T12:06:25;26.20;92.50
36004;DHT22;24526;50.918;5.360;2022-07-22T12:08:56;26.40;91.80
36004;DHT22;24526;50.918;5.360;2022-07-22T12:11:25;26.40;91.70
36004;DHT22;24526;50.918;5.360;2022-07-22T12:13:51;26.20;90.90
36004;DHT22;24526;50.918;5.360;2022-07-22T12:16:26;26.20;91.50
36004;DHT22;24526;50.918;5.360;2022-07-22T12:24:34;26.60;90.30
36004;DHT22;24526;50.918;5.360;2022-07-22T12:27:06;26.70;91.30
36004;DHT22;24526;50.918;5.360;2022-07-22T12:32:01;26.80;90.20
36004;DHT22;24526;50.918;5.360;2022-07-22T12:34:43;26.60;90.50
36004;DHT22;24526;50.918;5.360;2022-07-22T12:39:38;26.80;90.80
36004;DHT22;24526;50.918;5.360;2022-07-22T12:42:15;27.00;90.80
36004;DHT22;24526;50.918;5.360;2022-07-22T12:44:45;27.00;89.50
36004;DHT22;24526;50.918;5.360;2022-07-22T12:47:15;26.70;89.90
36004;DHT22;24526;50.918;5.360;2022-07-22T12:49:41;26.60;90.60
36004;DHT22;24526;50.918;5.360;2022-07-22T12:52:11;26.80;90.80
36004;DHT22;24526;50.918;5.360;2022-07-22T12:54:38;27.00;90.30
36004;DHT22;24526;50.918;5.360;2022-07-22T12:57:05;26.90;88.10
36004;DHT22;24526;50.918;5.360;2022-07-22T12:59:31;26.90;87.60
36004;DHT22;24526;50.918;5.360;2022-07-22T13:01:57;27.00;87.10
36004;DHT22;24526;50.918;5.360;2022-07-22T13:04:28;27.30;87.50
36004;DHT22;24526;50.918;5.360;2022-07-22T13:06:54;27.40;85.80
36004;DHT22;24526;50.918;5.360;2022-07-22T13:09:19;27.40;84.70
36004;DHT22;24526;50.918;5.360;2022-07-22T13:11:45;27.60;85.20
36004;DHT22;24526;50.918;5.360;2022-07-22T13:14:12;27.90;86.20
36004;DHT22;24526;50.918;5.360;2022-07-22T13:16:37;28.00;84.90
36004;DHT22;24526;50.918;5.360;2022-07-22T13:19:04;27.90;83.90
36004;DHT22;24526;50.918;5.360;2022-07-22T13:21:30;28.00;81.80
36004;DHT22;24526;50.918;5.360;2022-07-22T13:23:56;28.60;81.80
36004;DHT22;24526;50.918;5.360;2022-07-22T13:26:22;29.10;82.40
36004;DHT22;24526;50.918;5.360;2022-07-22T13:28:50;29.20;78.90
36004;DHT22;24526;50.918;5.360;2022-07-22T13:31:15;29.90;76.80
36004;DHT22;24526;50.918;5.360;2022-07-22T13:33:41;31.30;74.30
36004;DHT22;24526;50.918;5.360;2022-07-22T13:36:07;32.70;67.90
36004;DHT22;24526;50.918;5.360;2022-07-22T13:38:32;33.90;62.60
36004;DHT22;24526;50.918;5.360;2022-07-22T13:40:58;33.60;63.80
36004;DHT22;24526;50.918;5.360;2022-07-22T13:43:24;33.60;65.50
36004;DHT22;24526;50.918;5.360;2022-07-22T13:45:50;33.20;65.30
36004;DHT22;24526;50.918;5.360;2022-07-22T13:48:19;32.50;66.30
36004;DHT22;24526;50.918;5.360;2022-07-22T13:50:45;32.30;67.60
36004;DHT22;24526;50.918;5.360;2022-07-22T13:53:14;32.00;68.80
36004;DHT22;24526;50.918;5.360;2022-07-22T13:55:40;32.20;66.50
36004;DHT22;24526;50.918;5.360;2022-07-22T13:58:06;32.60;64.90
36004;DHT22;24526;50.918;5.360;2022-07-22T14:00:32;33.00;64.10
36004;DHT22;24526;50.918;5.360;2022-07-22T14:02:58;33.10;60.70
36004;DHT22;24526;50.918;5.360;2022-07-22T14:05:24;33.00;61.60
36004;DHT22;24526;50.918;5.360;2022-07-22T14:07:50;32.50;61.40
36004;DHT22;24526;50.918;5.360;2022-07-22T14:10:21;32.30;64.20
36004;DHT22;24526;50.918;5.360;2022-07-22T14:12:47;31.60;65.40
36004;DHT22;24526;50.918;5.360;2022-07-22T14:15:13;31.00;65.30
36004;DHT22;24526;50.918;5.360;2022-07-22T14:17:40;30.50;66.70
36004;DHT22;24526;50.918;5.360;2022-07-22T14:20:06;30.00;66.30
36004;DHT22;24526;50.918;5.360;2022-07-22T14:22:37;29.70;69.30
36004;DHT22;24526;50.918;5.360;2022-07-22T14:25:06;29.60;71.70
36004;DHT22;24526;50.918;5.360;2022-07-22T14:27:33;29.50;72.90
36004;DHT22;24526;50.918;5.360;2022-07-22T14:29:59;29.00;72.30
36004;DHT22;24526;50.918;5.360;2022-07-22T14:32:25;29.00;73.00
36004;DHT22;24526;50.918;5.360;2022-07-22T14:34:54;28.70;71.20
36004;DHT22;24526;50.918;5.360;2022-07-22T14:37:23;28.60;71.80
36004;DHT22;24526;50.918;5.360;2022-07-22T14:39:49;28.40;72.00
36004;DHT22;24526;50.918;5.360;2022-07-22T14:42:17;28.10;72.90
36004;DHT22;24526;50.918;5.360;2022-07-22T14:44:44;27.90;75.70
36004;DHT22;24526;50.918;5.360;2022-07-22T14:47:10;27.90;76.00
36004;DHT22;24526;50.918;5.360;2022-07-22T14:49:37;28.00;76.20
36004;DHT22;24526;50.918;5.360;2022-07-22T14:52:03;28.00;77.00
36004;DHT22;24526;50.918;5.360;2022-07-22T14:54:29;28.00;77.90
36004;DHT22;24526;50.918;5.360;2022-07-22T14:56:56;28.00;78.70
36004;DHT22;24526;50.918;5.360;2022-07-22T14:59:26;28.00;77.90
36004;DHT22;24526;50.918;5.360;2022-07-22T15:02:00;28.00;78.30
36004;DHT22;24526;50.918;5.360;2022-07-22T15:04:26;27.70;79.10
36004;DHT22;24526;50.918;5.360;2022-07-22T15:06:52;27.70;78.30
36004;DHT22;24526;50.918;5.360;2022-07-22T15:09:20;27.60;77.10
36004;DHT22;24526;50.918;5.360;2022-07-22T15:11:51;27.70;78.60
36004;DHT22;24526;50.918;5.360;2022-07-22T15:14:21;27.30;76.50
36004;DHT22;24526;50.918;5.360;2022-07-22T15:16:47;27.20;80.30
36004;DHT22;24526;50.918;5.360;2022-07-22T15:19:13;27.10;80.60
36004;DHT22;24526;50.918;5.360;2022-07-22T15:21:41;27.20;79.90
36004;DHT22;24526;50.918;5.360;2022-07-22T15:24:11;27.20;80.10
36004;DHT22;24526;50.918;5.360;2022-07-22T15:26:37;27.30;80.60
36004;DHT22;24526;50.918;5.360;2022-07-22T15:29:03;27.20;80.90
36004;DHT22;24526;50.918;5.360;2022-07-22T15:31:29;27.20;80.70
36004;DHT22;24526;50.918;5.360;2022-07-22T15:33:58;27.20;81.00
36004;DHT22;24526;50.918;5.360;2022-07-22T15:36:23;27.00;81.40
36004;DHT22;24526;50.918;5.360;2022-07-22T15:38:50;27.00;82.60
36004;DHT22;24526;50.918;5.360;2022-07-22T15:41:19;27.10;82.90
36004;DHT22;24526;50.918;5.360;2022-07-22T15:43:47;26.80;82.30
36004;DHT22;24526;50.918;5.360;2022-07-22T15:46:13;26.80;81.50
36004;DHT22;24526;50.918;5.360;2022-07-22T15:48:38;26.70;79.90
36004;DHT22;24526;50.918;5.360;2022-07-22T15:51:04;26.50;79.80
36004;DHT22;24526;50.918;5.360;2022-07-22T15:53:41;26.50;81.30
36004;DHT22;24526;50.918;5.360;2022-07-22T15:56:09;26.50;82.00